This is the latest recevied weather packets stored in our database for station/object S50APT-10. If no packets are shown the sender has not sent any weather packets the latest 10 day(s).
| Time | Temp. | Humidity | Pressure | Rain* | Wind** | Luminosity | Snow |
|---|---|---|---|---|---|---|---|
| 1778014041 | 13.33° C | 68% | 1013.3 hPa | - | - | - | - |
| 1778013139 | 13.33° C | 68% | 1013.4 hPa | - | - | - | - |
| 1778012239 | 13.33° C | 68% | 1013.3 hPa | - | - | - | - |
| 1778011470 | 13.33° C | 67% | 1013.4 hPa | - | - | - | - |
| 1778011337 | 13.33° C | 67% | 1013.4 hPa | - | - | - | - |
| 1778010437 | 13.33° C | 66% | 1013.6 hPa | - | - | - | - |
| 1778009537 | 13.89° C | 63% | 1013.7 hPa | - | - | - | - |
| 1778008636 | 14.44° C | 61% | 1013.7 hPa | - | - | - | - |
| 1778007735 | 14.44° C | 60% | 1013.6 hPa | - | - | - | - |
| 1778006835 | 14.44° C | 59% | 1013.4 hPa | - | - | - | - |
| 1778005934 | 15° C | 59% | 1013.3 hPa | - | - | - | - |
| 1778005034 | 15° C | 57% | 1013.4 hPa | - | - | - | - |
| 1778004133 | 15.56° C | 57% | 1013.7 hPa | - | - | - | - |
| 1778003233 | 15.56° C | 54% | 1013.5 hPa | - | - | - | - |
| 1778002332 | 16.11° C | 51% | 1013.7 hPa | - | - | - | - |
| 1778001431 | 17.22° C | 49% | 1013.7 hPa | - | - | - | - |
| 1778000531 | 17.22° C | 48% | 1013.8 hPa | - | - | - | - |
| 1777999630 | 17.22° C | 47% | 1013.9 hPa | - | - | - | - |
| 1777998729 | 18.89° C | 42% | 1013.8 hPa | - | - | - | - |
| 1777997828 | 18.89° C | 42% | 1014 hPa | - | - | - | - |
| 1777996927 | 21.11° C | 38% | 1014 hPa | - | - | - | - |
| 1777996027 | 20.56° C | 38% | 1013.7 hPa | - | - | - | - |
| 1777995127 | 19.44° C | 44% | 1013.9 hPa | - | - | - | - |
| 1777994226 | 18.33° C | 45% | 1013.7 hPa | - | - | - | - |
| 1777993326 | 18.89° C | 44% | 1013.9 hPa | - | - | - | - |
* Rain since midnight (hover to see other rain measurements)
** Current wind speed in m/s (hover to see current wind gust speed)